This is the latest recevied weather packets stored in our database for station/object AC8UJ. If no packets are shown the sender has not sent any weather packets the latest 10 day(s).
| Time | Temp. | Humidity | Pressure | Rain* | Wind** | Luminosity | Snow |
|---|---|---|---|---|---|---|---|
| 1777554317 | 6.67° C | 80% | - | 0 mm | - | - | - |
| 1777550717 | 5.56° C | 83% | - | 0 mm | - | - | - |
| 1777548317 | 5° C | 84% | - | 0 mm | - | - | - |
| 1777547117 | 5° C | 85% | - | 0 mm | - | - | - |
| 1777536915 | 7.22° C | 79% | - | 0 mm | - | - | - |
| 1777536315 | 7.22° C | 79% | - | 0 mm | - | - | - |
| 1777534539 | 7.22° C | 81% | - | 0 mm | - | - | - |
| 1777533317 | 7.78° C | 82% | - | 0 mm | - | - | - |
| 1777530916 | 7.78° C | 81% | - | 0 mm | - | - | - |
| 1777528535 | 8.33° C | 80% | - | 0 mm | - | - | - |
| 1777526137 | 8.89° C | 77% | - | 0 mm | - | - | - |
| 1777523116 | 10° C | 75% | - | 0 mm | - | - | - |
| 1777521317 | 10.56° C | 73% | - | 0 mm | - | - | - |
| 1777520717 | 11.11° C | 72% | - | 0 mm | - | - | - |
| 1777514116 | 12.78° C | 70% | - | 0 mm | - | - | - |
| 1777512337 | 13.33° C | 68% | - | 0 mm | - | - | - |
| 1777493716 | 17.22° C | 68% | - | 0 mm | - | - | - |
| 1777491917 | 17.22° C | 71% | - | 0 mm | - | - | - |
| 1777491315 | 17.22° C | 71% | - | 0 mm | - | - | - |
| 1777489516 | 16.11° C | 79% | - | 0 mm | - | - | - |
| 1777485918 | 15° C | 87% | - | 0 mm | - | - | - |
| 1777479942 | 13.33° C | 94% | - | 0.76 mm | - | - | - |
| 1777473316 | 13.33° C | 95% | - | 3.56 mm | - | - | - |
| 1777472117 | 12.78° C | 95% | - | 4.57 mm | - | - | - |
| 1777470357 | 13.33° C | 94% | - | 1.27 mm | - | - | - |
* Rain latest hour (hover to see other rain measurements)
** Current wind speed in m/s (hover to see current wind gust speed)